createdAt,value
2023-05-10T00:00:15.994Z,21.73
2023-05-10T00:02:45.180Z,22.03
2023-05-10T00:05:13.160Z,20.13
2023-05-10T00:07:41.099Z,20.50
2023-05-10T00:10:09.628Z,22.53
2023-05-10T00:12:39.305Z,22.67
2023-05-10T00:15:08.492Z,22.10
2023-05-10T00:17:36.561Z,18.60
2023-05-10T00:20:05.763Z,20.47
2023-05-10T00:22:33.859Z,21.23
2023-05-10T00:25:01.854Z,18.83
2023-05-10T00:27:29.806Z,18.90
2023-05-10T00:29:59.041Z,18.07
2023-05-10T00:32:26.949Z,17.67
2023-05-10T00:34:54.908Z,17.00
2023-05-10T00:40:09.450Z,16.47
2023-05-10T00:42:37.408Z,16.83
2023-05-10T00:45:08.580Z,15.87
2023-05-10T00:47:37.414Z,17.10
2023-05-10T00:50:06.277Z,14.93
2023-05-10T00:52:34.330Z,14.97
2023-05-10T00:55:04.267Z,15.73
2023-05-10T00:57:33.384Z,14.13
2023-05-10T01:00:01.651Z,15.63
2023-05-10T01:02:31.041Z,14.97
2023-05-10T01:04:59.006Z,14.60
2023-05-10T01:07:27.060Z,14.13
2023-05-10T01:09:55.140Z,15.23
2023-05-10T01:12:23.182Z,16.93
2023-05-10T01:14:51.165Z,17.27
2023-05-10T01:17:19.638Z,17.83
2023-05-10T01:19:48.909Z,17.23
2023-05-10T01:22:39.459Z,18.37
2023-05-10T01:25:41.307Z,19.43
2023-05-10T01:28:40.110Z,17.67
2023-05-10T01:31:24.722Z,18.40
2023-05-10T01:33:58.202Z,22.03
2023-05-10T01:36:32.450Z,17.93
2023-05-10T01:39:08.707Z,20.83
2023-05-10T01:41:47.152Z,19.60
2023-05-10T01:44:22.623Z,20.73
2023-05-10T01:46:55.174Z,21.57
2023-05-10T01:49:28.345Z,21.70
2023-05-10T01:52:01.256Z,22.27
2023-05-10T01:54:31.070Z,21.70
2023-05-10T01:57:05.340Z,24.53
2023-05-10T01:59:40.075Z,24.40
2023-05-10T02:02:08.753Z,22.40
2023-05-10T02:04:40.550Z,22.63
2023-05-10T02:07:10.019Z,23.53
2023-05-10T02:09:39.116Z,23.53
2023-05-10T02:12:09.330Z,24.23
2023-05-10T02:14:38.940Z,27.50
2023-05-10T02:17:08.805Z,26.67
2023-05-10T02:19:40.273Z,27.43
2023-05-10T02:22:10.060Z,30.23
2023-05-10T02:24:38.756Z,30.43
2023-05-10T02:27:08.100Z,28.87
2023-05-10T02:29:38.449Z,28.10
2023-05-10T02:32:07.860Z,30.33
2023-05-10T02:34:36.585Z,30.00
2023-05-10T02:37:06.922Z,28.93
2023-05-10T02:39:35.809Z,29.00
2023-05-10T02:42:05.755Z,26.10
2023-05-10T02:44:35.398Z,26.33
2023-05-10T02:47:03.292Z,29.37
2023-05-10T02:49:31.160Z,27.90
2023-05-10T02:52:03.285Z,24.73
2023-05-10T02:54:37.900Z,25.73
2023-05-10T02:57:07.864Z,24.33
2023-05-10T02:59:35.987Z,24.40
2023-05-10T03:02:04.889Z,25.20
2023-05-10T03:04:32.837Z,23.50
2023-05-10T03:07:00.825Z,24.00
2023-05-10T03:09:28.790Z,23.23
2023-05-10T03:12:05.920Z,22.87
2023-05-10T03:14:50.897Z,22.87
2023-05-10T03:17:38.254Z,24.07
2023-05-10T03:20:10.958Z,22.60
2023-05-10T03:22:42.872Z,22.03
2023-05-10T03:25:13.372Z,21.40
2023-05-10T03:27:46.030Z,21.07
2023-05-10T03:30:15.309Z,23.23
2023-05-10T03:32:43.712Z,22.00
2023-05-10T03:35:12.537Z,22.97
2023-05-10T03:37:40.577Z,23.07
2023-05-10T03:40:09.707Z,25.20
2023-05-10T03:42:39.767Z,22.70
2023-05-10T03:45:10.983Z,23.00
2023-05-10T03:47:38.981Z,22.23
2023-05-10T03:50:08.322Z,24.10
2023-05-10T03:52:36.261Z,23.00
2023-05-10T03:55:04.631Z,22.67
2023-05-10T03:57:32.663Z,24.30
2023-05-10T04:00:01.614Z,22.80
2023-05-10T04:02:31.413Z,25.80
2023-05-10T04:04:59.412Z,24.53
2023-05-10T04:07:27.282Z,25.63
2023-05-10T04:09:55.123Z,26.90
2023-05-10T04:12:24.119Z,30.27
2023-05-10T04:14:52.048Z,27.83
2023-05-10T04:17:19.920Z,28.00
2023-05-10T04:19:49.127Z,29.57
2023-05-10T04:22:16.982Z,27.27
2023-05-10T04:24:44.864Z,28.60
2023-05-10T04:27:12.823Z,28.00
2023-05-10T04:29:40.700Z,27.73
2023-05-10T04:32:08.926Z,26.93
2023-05-10T04:34:36.783Z,28.60
2023-05-10T04:37:06.413Z,26.63
2023-05-10T04:39:34.371Z,29.07
2023-05-10T04:42:03.708Z,28.17
2023-05-10T04:44:31.637Z,28.27
2023-05-10T04:46:59.619Z,28.33
2023-05-10T04:49:27.511Z,28.40
2023-05-10T04:51:55.414Z,29.13
2023-05-10T04:54:24.637Z,28.87
2023-05-10T04:56:52.688Z,28.17
2023-05-10T04:59:20.579Z,27.20
2023-05-10T05:01:48.538Z,28.53
2023-05-10T05:04:16.783Z,26.90
2023-05-10T05:06:44.784Z,25.70
2023-05-10T05:09:12.690Z,28.50
2023-05-10T05:11:41.968Z,28.80
2023-05-10T05:14:09.800Z,28.70
2023-05-10T05:16:37.672Z,28.83
2023-05-10T05:19:05.743Z,27.40
2023-05-10T05:21:33.950Z,28.47
2023-05-10T05:24:02.281Z,27.37
2023-05-10T05:26:30.220Z,27.97
2023-05-10T05:28:59.414Z,24.73
2023-05-10T05:31:27.321Z,25.50
2023-05-10T05:33:55.231Z,24.33
2023-05-10T05:36:23.583Z,25.10
2023-05-10T05:38:51.435Z,22.73
2023-05-10T05:41:19.333Z,20.63
2023-05-10T05:43:47.268Z,20.73
2023-05-10T05:46:16.532Z,21.67
2023-05-10T05:48:44.460Z,19.03
2023-05-10T05:51:12.416Z,19.10
2023-05-10T05:53:40.345Z,19.70
2023-05-10T05:56:08.963Z,19.13
2023-05-10T05:58:36.892Z,19.80
2023-05-10T06:01:04.817Z,18.20
2023-05-10T06:03:34.194Z,18.90
2023-05-10T06:06:02.174Z,19.53
2023-05-10T06:08:30.048Z,19.67
2023-05-10T06:10:57.864Z,20.60
2023-05-10T06:13:25.742Z,18.90
2023-05-10T06:15:53.599Z,20.03
2023-05-10T06:18:21.433Z,20.70
2023-05-10T06:20:52.625Z,17.70
2023-05-10T06:23:20.493Z,20.20
2023-05-10T06:25:48.374Z,20.83
2023-05-10T06:28:16.313Z,19.30
2023-05-10T06:30:44.471Z,20.03
2023-05-10T06:33:12.410Z,20.13
2023-05-10T06:35:40.315Z,20.37
2023-05-10T06:38:09.630Z,19.53
2023-05-10T06:40:37.905Z,19.37
2023-05-10T06:43:06.537Z,20.10
2023-05-10T06:45:34.426Z,20.40
2023-05-10T06:48:02.472Z,18.50
2023-05-10T06:50:30.480Z,20.17
2023-05-10T06:52:58.434Z,19.57
2023-05-10T06:55:28.586Z,20.87
2023-05-10T06:57:56.594Z,19.60
2023-05-10T07:00:24.650Z,19.73
2023-05-10T07:02:52.873Z,18.93
2023-05-10T07:05:21.250Z,20.13
2023-05-10T07:07:49.421Z,18.13
2023-05-10T07:10:17.362Z,18.00
2023-05-10T07:12:46.706Z,19.10
2023-05-10T07:15:14.810Z,17.57
2023-05-10T07:17:44.071Z,18.60
2023-05-10T07:20:14.510Z,17.37
2023-05-10T07:22:42.579Z,16.33
2023-05-10T07:25:10.777Z,15.80
2023-05-10T07:27:38.659Z,14.37
2023-05-10T07:30:09.505Z,13.30
2023-05-10T07:32:37.529Z,15.20
2023-05-10T07:35:06.477Z,14.27
2023-05-10T07:37:34.467Z,13.00
2023-05-10T07:40:02.405Z,13.50
2023-05-10T07:42:30.359Z,13.33
2023-05-10T07:44:58.718Z,15.03
2023-05-10T07:47:27.962Z,13.87
2023-05-10T07:49:56.184Z,12.87
2023-05-10T07:52:24.020Z,11.90
2023-05-10T07:54:51.925Z,12.70
2023-05-10T07:57:20.143Z,10.97
2023-05-10T07:59:48.483Z,10.63
2023-05-10T08:02:16.490Z,10.37
2023-05-10T08:04:45.817Z,9.80
2023-05-10T08:07:13.728Z,9.80
2023-05-10T08:09:41.614Z,10.47
2023-05-10T08:12:09.503Z,9.90
2023-05-10T08:14:37.752Z,9.90
2023-05-10T08:17:06.128Z,10.30
2023-05-10T08:19:34.019Z,9.67
2023-05-10T08:22:03.311Z,8.67
2023-05-10T08:24:31.194Z,8.97
2023-05-10T08:26:59.277Z,9.20
2023-05-10T08:29:28.503Z,9.30
2023-05-10T08:31:58.428Z,8.47
2023-05-10T08:34:26.433Z,9.70
2023-05-10T08:36:54.523Z,7.83
2023-05-10T08:39:30.466Z,8.53
2023-05-10T08:42:03.752Z,9.07
2023-05-10T08:44:32.823Z,8.17
2023-05-10T08:47:04.409Z,9.37
2023-05-10T08:49:34.286Z,10.03
2023-05-10T08:52:04.813Z,9.77
2023-05-10T08:54:35.118Z,9.90
2023-05-10T08:57:03.136Z,9.67
2023-05-10T08:59:31.063Z,10.00
2023-05-10T09:02:00.608Z,10.07
2023-05-10T09:04:29.346Z,9.23
2023-05-10T09:06:57.593Z,9.50
2023-05-10T09:09:27.170Z,9.73
2023-05-10T09:11:56.749Z,10.40
2023-05-10T09:14:26.416Z,10.37
2023-05-10T09:16:55.117Z,9.30
2023-05-10T09:19:23.038Z,9.03
2023-05-10T09:21:51.437Z,9.00
2023-05-10T09:24:19.311Z,8.70
2023-05-10T09:26:50.662Z,8.07
2023-05-10T09:29:20.019Z,8.47
2023-05-10T09:31:52.165Z,8.93
2023-05-10T09:34:21.914Z,7.80
2023-05-10T09:36:55.987Z,8.03
2023-05-10T09:39:32.762Z,8.60
2023-05-10T09:42:01.784Z,7.70
2023-05-10T09:44:31.229Z,7.80
2023-05-10T09:46:59.468Z,7.80
2023-05-10T09:49:27.445Z,8.20
2023-05-10T09:52:05.765Z,7.53
2023-05-10T09:54:34.407Z,6.00
2023-05-10T09:57:02.805Z,6.90
2023-05-10T09:59:32.073Z,6.37
2023-05-10T10:02:01.878Z,6.13
2023-05-10T10:04:30.303Z,5.73
2023-05-10T10:07:03.536Z,6.17
2023-05-10T10:09:31.621Z,5.63
2023-05-10T10:12:00.658Z,6.47
2023-05-10T10:14:28.713Z,5.60
2023-05-10T10:17:08.125Z,6.20
2023-05-10T10:19:37.929Z,6.53
2023-05-10T10:22:06.776Z,6.70
2023-05-10T10:24:35.004Z,7.70
2023-05-10T10:27:10.963Z,8.73
2023-05-10T10:29:43.068Z,8.47
2023-05-10T10:32:22.141Z,10.53
2023-05-10T10:34:50.270Z,13.13
2023-05-10T10:37:18.417Z,13.93
2023-05-10T10:39:46.440Z,13.63
2023-05-10T10:42:14.312Z,12.23
2023-05-10T10:44:42.847Z,14.37
2023-05-10T10:47:25.801Z,14.00
2023-05-10T10:50:04.426Z,13.00
2023-05-10T10:52:36.209Z,12.67
2023-05-10T10:55:06.246Z,12.70
2023-05-10T10:57:35.512Z,12.57
2023-05-10T11:00:26.287Z,12.47
2023-05-10T11:02:58.212Z,12.40
2023-05-10T11:05:28.005Z,12.27
2023-05-10T11:07:56.844Z,12.53
2023-05-10T11:10:25.577Z,11.83
2023-05-10T11:12:54.956Z,12.40
2023-05-10T11:15:30.816Z,13.10
2023-05-10T11:18:00.455Z,12.17
2023-05-10T11:20:34.206Z,13.03
2023-05-10T11:23:16.490Z,12.90
2023-05-10T11:25:45.898Z,12.40
2023-05-10T11:28:14.145Z,14.77
2023-05-10T11:30:43.873Z,13.77
2023-05-10T11:33:17.927Z,13.93
2023-05-10T11:35:46.020Z,14.03
2023-05-10T11:38:15.317Z,13.63
2023-05-10T11:40:43.733Z,13.37
2023-05-10T11:43:15.119Z,13.73
2023-05-10T11:45:44.229Z,13.97
2023-05-10T11:48:13.490Z,14.20
2023-05-10T11:50:41.596Z,14.77
2023-05-10T11:53:09.445Z,14.57
2023-05-10T11:55:37.355Z,13.60
2023-05-10T11:58:05.258Z,13.30
2023-05-10T12:00:34.062Z,12.50
2023-05-10T12:03:03.411Z,11.87
2023-05-10T12:05:35.308Z,12.57
2023-05-10T12:08:16.378Z,11.53
2023-05-10T12:10:44.336Z,11.77
2023-05-10T12:13:16.411Z,11.33
2023-05-10T12:15:45.387Z,12.13
2023-05-10T12:18:14.512Z,11.63
2023-05-10T12:20:43.955Z,12.17
2023-05-10T12:23:12.240Z,11.60
2023-05-10T12:25:41.017Z,12.10
2023-05-10T12:28:10.807Z,10.97
2023-05-10T12:30:39.616Z,11.70
2023-05-10T12:33:11.183Z,10.50
2023-05-10T12:35:51.147Z,10.77
2023-05-10T12:38:30.496Z,10.37
2023-05-10T12:40:59.485Z,11.00
2023-05-10T12:43:27.426Z,9.77
2023-05-10T12:45:55.609Z,9.37
2023-05-10T12:48:23.694Z,10.07
2023-05-10T12:50:52.939Z,9.30
2023-05-10T12:53:20.820Z,8.63
2023-05-10T12:55:48.709Z,9.27
2023-05-10T12:58:27.817Z,8.40
2023-05-10T13:01:01.072Z,8.33
2023-05-10T13:03:29.086Z,7.73
2023-05-10T13:05:58.356Z,7.87
2023-05-10T13:08:26.373Z,8.30
2023-05-10T13:10:54.444Z,7.40
2023-05-10T13:13:22.309Z,6.77
2023-05-10T13:15:50.126Z,6.73
2023-05-10T13:18:18.120Z,7.60
2023-05-10T13:20:46.121Z,7.67
2023-05-10T13:23:15.665Z,8.43
2023-05-10T13:25:43.532Z,9.17
2023-05-10T13:28:11.372Z,9.97
2023-05-10T13:30:39.228Z,8.70
2023-05-10T13:33:07.103Z,9.50
2023-05-10T13:35:35.017Z,8.73
2023-05-10T13:38:02.994Z,9.30
2023-05-10T13:40:32.207Z,8.80
2023-05-10T13:43:00.186Z,8.13
2023-05-10T13:45:28.484Z,8.43
2023-05-10T13:47:56.413Z,9.33
2023-05-10T13:50:24.344Z,10.40
2023-05-10T13:52:52.170Z,9.37
2023-05-10T13:55:20.263Z,6.60
2023-05-10T13:57:49.621Z,7.00
2023-05-10T14:00:18.259Z,4.77
2023-05-10T14:02:46.219Z,5.30
2023-05-10T14:05:14.304Z,5.03
2023-05-10T14:07:42.193Z,5.13
2023-05-10T14:10:10.717Z,5.33
2023-05-10T14:12:38.656Z,4.70
2023-05-10T14:15:11.280Z,5.27
2023-05-10T14:17:39.291Z,5.30
2023-05-10T14:20:08.559Z,4.77
2023-05-10T14:22:36.747Z,4.83
2023-05-10T14:25:04.988Z,4.57
2023-05-10T14:27:34.278Z,4.50
2023-05-10T14:30:02.118Z,4.43
2023-05-10T14:32:32.924Z,4.50
2023-05-10T14:35:01.043Z,4.77
2023-05-10T14:37:28.922Z,4.07
2023-05-10T14:39:56.781Z,4.87
2023-05-10T14:42:24.614Z,4.20
2023-05-10T14:44:52.482Z,4.33
2023-05-10T14:47:20.326Z,3.80
2023-05-10T14:49:49.578Z,4.33
2023-05-10T14:52:18.189Z,3.23
2023-05-10T14:54:46.064Z,3.77
2023-05-10T14:57:13.918Z,3.60
2023-05-10T14:59:41.773Z,3.27
2023-05-10T15:02:11.344Z,3.30
2023-05-10T15:04:39.777Z,2.93
2023-05-10T15:07:09.361Z,2.87
2023-05-10T15:09:37.188Z,3.97
2023-05-10T15:12:05.293Z,4.17
2023-05-10T15:14:33.830Z,4.70
2023-05-10T15:17:01.814Z,4.90
2023-05-10T15:19:30.474Z,5.47
2023-05-10T15:21:58.339Z,6.97
2023-05-10T15:24:27.621Z,5.53
2023-05-10T15:26:55.889Z,6.27
2023-05-10T15:29:23.888Z,7.03
2023-05-10T15:31:52.763Z,7.17
2023-05-10T15:34:21.036Z,7.00
2023-05-10T15:36:48.894Z,8.10
2023-05-10T15:39:16.735Z,7.90
2023-05-10T15:41:45.986Z,8.00
2023-05-10T15:44:13.834Z,8.43
2023-05-10T15:46:41.799Z,9.50
2023-05-10T15:49:09.684Z,10.53
2023-05-10T15:51:37.654Z,10.10
2023-05-10T15:54:08.325Z,9.70
2023-05-10T15:56:36.658Z,9.13
2023-05-10T15:59:06.271Z,8.23
2023-05-10T16:01:34.445Z,9.30
2023-05-10T16:04:02.534Z,9.53
2023-05-10T16:06:31.264Z,9.47
2023-05-10T16:08:59.196Z,9.17
2023-05-10T16:11:27.088Z,8.53
2023-05-10T16:13:55.387Z,8.73
2023-05-10T16:16:24.675Z,8.03
2023-05-10T16:18:53.202Z,8.40
2023-05-10T16:21:21.254Z,8.80
2023-05-10T16:23:49.196Z,8.40
2023-05-10T16:26:17.471Z,7.60
2023-05-10T16:28:45.375Z,7.67
2023-05-10T16:31:13.775Z,8.20
2023-05-10T16:33:43.559Z,7.30
2023-05-10T16:36:11.427Z,8.47
2023-05-10T16:38:39.277Z,7.50
2023-05-10T16:41:07.668Z,6.83
2023-05-10T16:43:35.798Z,7.33
2023-05-10T16:46:03.908Z,7.53
2023-05-10T16:48:31.763Z,9.10
2023-05-10T16:51:01.058Z,6.93
2023-05-10T16:53:28.948Z,7.40
2023-05-10T16:55:56.819Z,7.10
2023-05-10T16:58:24.745Z,8.50
2023-05-10T17:00:52.986Z,7.70
2023-05-10T17:03:21.070Z,7.30
2023-05-10T17:05:49.107Z,8.60
2023-05-10T17:08:18.556Z,8.17
2023-05-10T17:10:46.622Z,7.17
2023-05-10T17:13:16.905Z,7.70
2023-05-10T17:15:46.857Z,7.73
2023-05-10T17:18:14.853Z,7.03
2023-05-10T17:20:45.070Z,5.87
2023-05-10T17:23:13.041Z,5.50
2023-05-10T17:25:42.705Z,5.20
2023-05-10T17:28:10.715Z,3.33
2023-05-10T17:30:38.638Z,3.60
2023-05-10T17:33:06.572Z,3.80
2023-05-10T17:35:34.519Z,3.57
2023-05-10T17:38:02.596Z,3.73
2023-05-10T17:40:30.448Z,4.00
2023-05-10T17:42:59.611Z,4.13
2023-05-10T17:45:27.626Z,4.67
2023-05-10T17:47:55.584Z,4.97
2023-05-10T17:50:23.535Z,5.67
2023-05-10T17:52:52.460Z,5.90
2023-05-10T17:55:20.421Z,5.70
2023-05-10T17:57:50.568Z,6.53
2023-05-10T18:00:21.490Z,6.87
2023-05-10T18:02:49.433Z,7.00
2023-05-10T18:05:17.906Z,5.93
2023-05-10T18:07:46.031Z,6.43
2023-05-10T18:10:13.975Z,7.27
2023-05-10T18:12:41.868Z,6.57
2023-05-10T18:15:10.426Z,6.63
2023-05-10T18:17:39.821Z,6.87
2023-05-10T18:20:09.049Z,7.50
2023-05-10T18:22:37.165Z,7.60
2023-05-10T18:25:05.637Z,6.80
2023-05-10T18:27:34.268Z,6.67
2023-05-10T18:30:02.287Z,7.00
2023-05-10T18:32:30.383Z,7.20
2023-05-10T18:34:59.890Z,6.73
2023-05-10T18:37:27.888Z,7.07
2023-05-10T18:39:55.754Z,6.87
2023-05-10T18:42:23.642Z,6.93
2023-05-10T18:44:51.686Z,7.60
2023-05-10T18:47:19.800Z,7.70
2023-05-10T18:49:47.959Z,7.90
2023-05-10T18:52:17.191Z,7.73
2023-05-10T18:54:45.130Z,8.43
2023-05-10T18:57:13.763Z,8.07
2023-05-10T18:59:41.731Z,8.70
2023-05-10T19:02:09.755Z,10.73
2023-05-10T19:04:37.891Z,8.73
2023-05-10T19:07:05.791Z,8.60
2023-05-10T19:09:35.043Z,9.40
2023-05-10T19:12:02.937Z,8.10
2023-05-10T19:14:30.860Z,9.23
2023-05-10T19:17:00.681Z,9.17
2023-05-10T19:19:28.956Z,8.23
2023-05-10T19:21:56.814Z,11.03
2023-05-10T19:24:25.821Z,8.50
2023-05-10T19:26:56.129Z,9.20
2023-05-10T19:29:25.766Z,10.17
2023-05-10T19:31:54.461Z,10.37
2023-05-10T19:34:22.466Z,10.70
2023-05-10T19:36:51.074Z,9.87
2023-05-10T19:39:19.506Z,9.07
2023-05-10T19:41:47.804Z,9.03
2023-05-10T19:44:18.039Z,9.60
2023-05-10T19:46:46.036Z,9.50
2023-05-10T19:49:13.961Z,8.73
2023-05-10T19:51:41.821Z,8.20
2023-05-10T19:54:09.716Z,7.70
2023-05-10T19:56:37.678Z,7.73
2023-05-10T19:59:07.656Z,8.53
2023-05-10T20:01:37.111Z,9.13
2023-05-10T20:04:05.152Z,10.30
2023-05-10T20:06:33.008Z,9.80
2023-05-10T20:09:00.925Z,10.97
2023-05-10T20:11:28.811Z,10.27
2023-05-10T20:13:56.930Z,11.93
2023-05-10T20:16:26.784Z,11.77
2023-05-10T20:18:56.374Z,11.43
2023-05-10T20:21:26.284Z,11.47
2023-05-10T20:23:54.107Z,12.23
2023-05-10T20:26:22.582Z,11.63
2023-05-10T20:28:51.052Z,11.70
2023-05-10T20:31:18.938Z,10.43
2023-05-10T20:33:46.880Z,10.93
2023-05-10T20:36:16.691Z,11.70
2023-05-10T20:38:44.621Z,11.10
2023-05-10T20:41:12.554Z,11.43
2023-05-10T20:43:40.528Z,11.07
2023-05-10T20:46:08.716Z,10.47
2023-05-10T20:48:36.632Z,10.40
2023-05-10T20:51:04.629Z,9.70
2023-05-10T20:53:33.846Z,10.77
2023-05-10T20:56:02.208Z,10.30
2023-05-10T20:58:30.151Z,8.97
2023-05-10T21:00:58.009Z,9.23
2023-05-10T21:03:25.944Z,8.90
2023-05-10T21:05:53.894Z,9.27
2023-05-10T21:08:21.837Z,9.23
2023-05-10T21:10:51.154Z,9.03
2023-05-10T21:13:19.093Z,9.77
2023-05-10T21:15:46.965Z,9.53
2023-05-10T21:18:14.888Z,9.57
2023-05-10T21:20:42.755Z,10.40
2023-05-10T21:23:10.584Z,9.33
2023-05-10T21:25:38.471Z,10.80
2023-05-10T21:28:07.740Z,9.93
2023-05-10T21:30:35.999Z,10.37
2023-05-10T21:33:04.358Z,10.03
2023-05-10T21:35:32.348Z,10.93
2023-05-10T21:38:00.242Z,11.70
2023-05-10T21:40:29.409Z,11.33
2023-05-10T21:42:57.737Z,11.10
2023-05-10T21:45:27.277Z,10.83
2023-05-10T21:47:55.233Z,10.73
2023-05-10T21:50:23.118Z,11.10
2023-05-10T21:52:51.014Z,11.07
2023-05-10T21:55:19.240Z,11.47
2023-05-10T21:57:47.691Z,11.57
2023-05-10T22:00:17.028Z,11.00
2023-05-10T22:02:46.790Z,11.57
2023-05-10T22:05:14.800Z,11.97
2023-05-10T22:07:42.624Z,11.70
2023-05-10T22:10:11.038Z,11.27
2023-05-10T22:12:38.916Z,11.30
2023-05-10T22:15:10.245Z,10.97
2023-05-10T22:17:39.650Z,12.90
2023-05-10T22:20:10.462Z,11.20
2023-05-10T22:22:38.401Z,12.13
2023-05-10T22:25:07.257Z,13.00
2023-05-10T22:27:35.296Z,11.83
2023-05-10T22:30:03.330Z,12.67
2023-05-10T22:32:32.262Z,11.90
2023-05-10T22:35:00.267Z,12.50
2023-05-10T22:37:29.477Z,12.87
2023-05-10T22:39:57.375Z,11.93
2023-05-10T22:42:25.332Z,11.83
2023-05-10T22:44:53.417Z,12.53
2023-05-10T22:47:21.305Z,11.80
2023-05-10T22:49:49.217Z,12.50
2023-05-10T22:52:17.174Z,11.07
2023-05-10T22:54:46.457Z,12.67
2023-05-10T22:57:15.063Z,12.57
2023-05-10T22:59:43.342Z,12.10
2023-05-10T23:02:11.725Z,11.50
2023-05-10T23:04:39.688Z,12.30
2023-05-10T23:07:07.581Z,11.17
2023-05-10T23:09:35.633Z,11.93
2023-05-10T23:12:05.084Z,12.93
2023-05-10T23:14:33.046Z,12.13
2023-05-10T23:17:00.909Z,13.37
2023-05-10T23:19:28.823Z,13.37
2023-05-10T23:21:56.633Z,12.60
2023-05-10T23:24:24.515Z,12.83
2023-05-10T23:26:52.462Z,13.27
2023-05-10T23:29:23.772Z,13.97
2023-05-10T23:31:51.690Z,12.83
2023-05-10T23:34:19.660Z,14.13
2023-05-10T23:36:47.535Z,12.90
2023-05-10T23:39:15.469Z,13.70
2023-05-10T23:41:43.391Z,14.20
2023-05-10T23:44:11.289Z,13.67
2023-05-10T23:46:40.756Z,13.80
2023-05-10T23:49:08.642Z,14.07
2023-05-10T23:51:36.556Z,13.50
2023-05-10T23:54:04.526Z,14.43
2023-05-10T23:56:32.507Z,14.67
2023-05-10T23:59:00.355Z,13.90
